Deering, New Hampshire
Current Conditions -  °F | °C
As of 8:32 PM on Tuesday 21 Oct 2014 (Local Time) from KCON Reporting Station
Overcast Overcast  
Wind Chill: 50°   Ceiling: 1000
Heat Index: 50°   Visibility: 10mi
Dew Point: 47°   Wind: 9mph
Humidity: 89%   Direction: 20°NNE
Pressure: 30"   Gusts: NA
Location:  43.1281°N, 71.9266°W
Report Text: KCON 220032Z AUTO 02008KT 10SM BKN010 OVC025 10/08 A3000 RMK AO2 T01000083
Loading
Personal Weather Stations






























Interactive Weather Map
Tropical Storm Tracking
New forecast layout! Learn more

10-Day Weather Forecast

Advertisements
Track Severe Weather on mobile